Time;durP1;ratioP1;P1;durP2;ratioP2;P2;SDS_P1;SDS_P2;PMS_P1;PMS_P2;Temp;Humidity;BMP_temperature;BMP_pressure;BME280_temperature;BME280_humidity;BME280_pressure;Samples;Min_cycle;Max_cycle;Signal;HPM_P1;HPM_P2
2023/04/25 00:01:27;;;;;;;15.85;4.28;;;6.50;99.90;;;;;;5111983;27;20122;-85
2023/04/25 00:03:53;;;;;;;14.13;3.55;;;6.50;99.90;;;;;;5094123;27;20124;-84
2023/04/25 00:06:19;;;;;;;13.68;4.10;;;6.50;99.90;;;;;;5111767;27;20080;-84
2023/04/25 00:08:44;;;;;;;12.80;3.50;;;7.20;99.90;;;;;;5094397;27;20051;-84
2023/04/25 00:11:10;;;;;;;13.63;4.25;;;6.30;99.90;;;;;;5111677;27;20503;-85
2023/04/25 00:13:36;;;;;;;12.30;3.95;;;6.30;99.90;;;;;;5093079;27;20518;-84
2023/04/25 00:16:02;;;;;;;15.57;4.20;;;6.30;99.90;;;;;;5110303;27;20042;-85
2023/04/25 00:18:29;;;;;;;18.77;5.30;;;6.20;99.90;;;;;;5109766;27;20057;-85
2023/04/25 00:20:55;;;;;;;14.50;4.50;;;6.10;99.90;;;;;;5111998;27;20047;-84
2023/04/25 00:23:21;;;;;;;16.67;3.63;;;6.00;99.90;;;;;;5109563;27;20047;-85
2023/04/25 00:25:49;;;;;;;11.23;3.58;;;6.00;99.90;;;;;;5111073;27;20073;-85
2023/04/25 00:28:15;;;;;;;16.45;4.15;;;6.00;99.90;;;;;;5110563;27;20068;-84
2023/04/25 00:30:42;;;;;;;13.68;4.35;;;5.90;99.90;;;;;;5093304;27;20059;-85
2023/04/25 00:33:08;;;;;;;10.15;3.92;;;5.90;99.90;;;;;;5108254;27;20051;-85
2023/04/25 00:35:34;;;;;;;11.82;3.95;;;5.90;99.90;;;;;;5095089;27;20039;-85
2023/04/25 00:38:00;;;;;;;11.88;4.30;;;5.90;99.90;;;;;;5129359;27;20047;-84
2023/04/25 00:40:26;;;;;;;10.75;4.10;;;5.80;99.90;;;;;;5111477;27;20046;-85
2023/04/25 00:42:52;;;;;;;16.55;4.80;;;5.80;99.90;;;;;;5093099;27;20039;-84
2023/04/25 00:45:19;;;;;;;17.58;3.90;;;5.70;99.90;;;;;;5127525;27;20031;-84
2023/04/25 00:47:47;;;;;;;13.68;4.03;;;6.40;99.90;;;;;;5128094;27;20039;-83
2023/04/25 00:50:13;;;;;;;14.93;3.63;;;5.70;99.90;;;;;;5107282;27;20035;-84
2023/04/25 00:52:44;;;;;;;11.52;3.33;;;5.80;99.90;;;;;;5109197;27;20043;-84
2023/04/25 00:55:10;;;;;;;11.70;4.22;;;5.70;99.90;;;;;;5128746;27;20039;-84
2023/04/25 00:57:37;;;;;;;12.95;4.30;;;5.70;99.90;;;;;;5108018;27;20041;-84
2023/04/25 01:00:07;;;;;;;14.68;3.72;;;5.70;99.90;;;;;;5107392;27;20066;-85
2023/04/25 01:02:35;;;;;;;14.27;4.25;;;5.70;99.90;;;;;;5129700;27;20047;-84
2023/04/25 01:05:01;;;;;;;15.73;4.75;;;5.80;99.90;;;;;;5105491;27;20043;-85
2023/04/25 01:07:27;;;;;;;11.98;6.15;;;5.80;99.90;;;;;;5128982;27;20050;-85
2023/04/25 01:09:52;;;;;;;13.10;4.10;;;5.80;99.90;;;;;;5091547;27;20035;-84
2023/04/25 01:12:18;;;;;;;12.10;3.63;;;5.80;99.90;;;;;;5128148;27;20077;-84
2023/04/25 01:14:44;;;;;;;14.27;3.78;;;5.80;99.90;;;;;;5129163;27;20035;-84
2023/04/25 01:17:13;;;;;;;18.27;4.40;;;5.70;99.90;;;;;;5128089;27;20046;-84
2023/04/25 01:19:39;;;;;;;10.98;3.85;;;5.70;99.90;;;;;;5111123;27;20501;-85
2023/04/25 01:22:05;;;;;;;11.75;3.75;;;5.60;99.90;;;;;;5111534;27;20188;-84
2023/04/25 01:24:34;;;;;;;12.90;3.90;;;5.60;99.90;;;;;;5110786;27;20130;-85
2023/04/25 01:27:01;;;;;;;16.45;4.05;;;5.50;99.90;;;;;;5090449;27;20568;-84
2023/04/25 01:29:27;;;;;;;14.73;4.10;;;5.50;99.90;;;;;;5090497;28;20046;-84
2023/04/25 01:31:53;;;;;;;10.68;3.40;;;5.40;99.90;;;;;;5099047;27;20491;-84
2023/04/25 01:34:19;;;;;;;10.77;3.88;;;5.30;99.90;;;;;;5093292;27;20075;-83
2023/04/25 01:36:46;;;;;;;14.77;5.47;;;5.30;99.90;;;;;;5110352;27;20043;-83
2023/04/25 01:39:12;;;;;;;12.45;4.28;;;5.30;99.90;;;;;;5109797;27;20063;-83
2023/04/25 01:41:38;;;;;;;14.35;4.65;;;5.20;99.90;;;;;;5110241;27;20051;-83
2023/04/25 01:44:07;;;;;;;7.25;3.55;;;5.20;99.90;;;;;;5109978;27;20481;-83
2023/04/25 01:46:34;;;;;;;16.00;4.93;;;5.20;99.90;;;;;;5110184;27;20043;-84
2023/04/25 01:49:00;;;;;;;13.55;4.57;;;5.20;99.90;;;;;;5091643;27;20031;-84
2023/04/25 01:51:26;;;;;;;14.35;5.10;;;5.30;99.90;;;;;;5109228;27;20042;-83
2023/04/25 01:53:52;;;;;;;19.35;4.82;;;5.70;99.90;;;;;;5090891;27;20061;-83
2023/04/25 01:56:18;;;;;;;16.75;4.50;;;5.30;99.90;;;;;;5096040;27;20389;-83
2023/04/25 01:58:44;;;;;;;13.90;4.18;;;5.30;99.90;;;;;;5109680;27;20031;-83
2023/04/25 02:01:10;;;;;;;13.30;3.92;;;5.40;99.90;;;;;;5109741;27;20485;-83
2023/04/25 02:03:36;;;;;;;12.68;3.78;;;5.40;99.90;;;;;;5093456;27;20113;-84
2023/04/25 02:06:02;;;;;;;13.18;4.18;;;5.50;99.90;;;;;;5110244;28;20043;-83
2023/04/25 02:08:28;;;;;;;12.80;3.70;;;5.50;99.90;;;;;;5092921;27;20118;-83
2023/04/25 02:10:53;;;;;;;8.93;3.67;;;5.50;99.90;;;;;;5096031;28;20051;-83
2023/04/25 02:13:19;;;;;;;11.68;4.20;;;5.50;99.90;;;;;;5109030;27;20047;-83
2023/04/25 02:15:44;;;;;;;14.57;3.72;;;5.50;99.90;;;;;;5108618;28;20047;-84
2023/04/25 02:18:11;;;;;;;12.70;3.33;;;5.50;99.90;;;;;;5107930;28;20118;-84
2023/04/25 02:20:39;;;;;;;10.40;3.60;;;5.50;99.90;;;;;;5107209;27;20602;-84
2023/04/25 02:23:05;;;;;;;15.90;4.00;;;5.50;99.90;;;;;;5111554;27;20082;-84
2023/04/25 02:25:30;;;;;;;15.63;3.72;;;5.60;99.90;;;;;;5114078;27;20058;-84
2023/04/25 02:27:56;;;;;;;12.80;3.13;;;5.60;99.90;;;;;;5113800;27;20066;-84
2023/04/25 02:30:22;;;;;;;13.43;3.75;;;5.60;99.90;;;;;;5132408;27;20043;-84
2023/04/25 02:32:47;;;;;;;15.15;3.53;;;5.60;99.90;;;;;;5132129;27;20076;-84
2023/04/25 02:35:13;;;;;;;16.08;3.60;;;5.60;99.90;;;;;;5113226;27;20093;-84
2023/04/25 02:37:39;;;;;;;12.52;3.85;;;5.60;99.90;;;;;;5110344;27;20055;-83
2023/04/25 02:40:06;;;;;;;13.02;3.88;;;5.80;99.90;;;;;;5110134;27;20135;-84
2023/04/25 02:42:32;;;;;;;9.05;3.25;;;5.60;99.90;;;;;;5093872;28;20151;-84
2023/04/25 02:44:58;;;;;;;11.43;4.03;;;5.60;99.90;;;;;;5093355;27;20481;-83
2023/04/25 02:47:23;;;;;;;10.30;3.45;;;5.60;99.90;;;;;;5112457;27;20039;-83
2023/04/25 02:49:49;;;;;;;12.82;2.97;;;5.60;99.90;;;;;;5093853;27;20401;-84
2023/04/25 02:52:15;;;;;;;10.95;3.83;;;5.60;99.90;;;;;;5106153;27;20043;-84
2023/04/25 02:54:40;;;;;;;11.52;3.25;;;5.90;99.90;;;;;;5087942;28;20504;-83
2023/04/25 02:57:06;;;;;;;8.95;3.63;;;5.50;99.90;;;;;;5092988;27;20043;-83
2023/04/25 02:59:32;;;;;;;9.50;2.97;;;5.50;99.90;;;;;;5111858;27;20096;-84
2023/04/25 03:02:01;;;;;;;14.05;3.67;;;5.50;99.90;;;;;;5112952;27;20508;-84
2023/04/25 03:04:26;;;;;;;10.75;3.00;;;5.50;99.90;;;;;;5112604;27;20612;-83
2023/04/25 03:06:53;;;;;;;13.68;2.88;;;5.50;99.90;;;;;;5113237;27;20039;-84
2023/04/25 03:09:18;;;;;;;12.30;2.80;;;5.50;99.90;;;;;;5095446;27;20166;-83
2023/04/25 03:11:45;;;;;;;9.35;2.90;;;5.50;99.90;;;;;;5132404;27;20078;-83
2023/04/25 03:14:11;;;;;;;12.02;2.97;;;5.50;99.90;;;;;;5095480;27;20493;-85
2023/04/25 03:16:37;;;;;;;12.00;2.88;;;5.50;99.90;;;;;;5110337;27;20050;-84
2023/04/25 03:19:03;;;;;;;11.25;3.00;;;5.50;99.90;;;;;;5109518;27;20404;-83
2023/04/25 03:21:31;;;;;;;16.73;3.03;;;5.80;99.90;;;;;;5107441;27;20050;-84
2023/04/25 03:23:57;;;;;;;11.60;2.72;;;5.40;99.90;;;;;;5111956;27;20496;-84
2023/04/25 03:26:26;;;;;;;12.90;2.88;;;5.40;99.90;;;;;;5112637;27;20370;-84
2023/04/25 03:28:51;;;;;;;11.15;2.92;;;5.40;99.90;;;;;;5112427;27;20042;-84
2023/04/25 03:31:17;;;;;;;15.18;2.78;;;5.40;99.90;;;;;;5131927;27;20062;-84
2023/04/25 03:33:43;;;;;;;8.43;2.40;;;5.30;99.90;;;;;;5111228;27;20050;-85
2023/04/25 03:36:09;;;;;;;10.68;2.40;;;5.30;99.90;;;;;;5113469;27;20043;-84
2023/04/25 03:38:35;;;;;;;7.35;2.55;;;5.30;99.90;;;;;;5095892;27;20065;-84
2023/04/25 03:41:02;;;;;;;12.88;2.92;;;5.30;99.90;;;;;;5128313;27;20046;-84
2023/04/25 03:43:27;;;;;;;9.60;2.72;;;5.20;99.90;;;;;;5112668;27;20133;-84
2023/04/25 03:45:53;;;;;;;7.15;2.35;;;5.20;99.90;;;;;;5113122;27;20047;-84
2023/04/25 03:48:22;;;;;;;7.82;2.13;;;5.10;99.90;;;;;;5113020;27;20037;-84
2023/04/25 03:50:54;;;;;;;6.47;2.00;;;5.10;99.90;;;;;;5095817;27;20046;-84
2023/04/25 03:53:19;;;;;;;5.93;1.98;;;5.60;99.90;;;;;;5092256;28;20040;-83
2023/04/25 03:55:45;;;;;;;4.70;1.52;;;5.00;99.90;;;;;;5075787;27;20054;-83
2023/04/25 03:58:11;;;;;;;5.32;1.92;;;5.00;99.90;;;;;;5088320;27;20119;-83
2023/04/25 04:00:36;;;;;;;4.38;1.75;;;5.00;99.90;;;;;;5095954;27;20043;-83
2023/04/25 04:03:02;;;;;;;4.10;1.80;;;5.00;99.90;;;;;;5093296;28;20037;-82
2023/04/25 04:05:28;;;;;;;4.43;1.65;;;5.60;99.90;;;;;;5086291;27;20495;-83
2023/04/25 04:07:54;;;;;;;4.30;1.52;;;4.90;99.90;;;;;;5111104;27;20085;-82
2023/04/25 04:10:20;;;;;;;4.47;1.45;;;4.90;99.90;;;;;;5111672;27;20081;-83
2023/04/25 04:12:45;;;;;;;3.72;1.70;;;4.90;99.90;;;;;;5111855;27;20071;-83
2023/04/25 04:15:11;;;;;;;5.20;1.65;;;4.90;99.90;;;;;;5111704;27;20031;-84
2023/04/25 04:17:37;;;;;;;4.90;1.67;;;4.90;99.90;;;;;;5094518;27;20726;-83
2023/04/25 04:20:04;;;;;;;4.47;1.77;;;4.90;99.90;;;;;;5109822;27;20130;-83
2023/04/25 04:22:29;;;;;;;4.50;1.40;;;4.90;99.90;;;;;;5112156;27;20042;-83
2023/04/25 04:24:56;;;;;;;5.30;1.83;;;4.90;99.90;;;;;;5100737;27;20055;-83
2023/04/25 04:27:22;;;;;;;8.73;1.75;;;4.90;99.90;;;;;;5109513;27;20051;-83
2023/04/25 04:29:48;;;;;;;4.93;1.63;;;4.90;99.90;;;;;;5111094;27;20102;-83
2023/04/25 04:32:15;;;;;;;3.22;1.83;;;4.90;99.90;;;;;;5112211;27;20089;-83
2023/04/25 04:34:41;;;;;;;4.80;1.80;;;4.90;99.90;;;;;;5128896;27;20039;-83
2023/04/25 04:37:07;;;;;;;5.75;1.80;;;4.90;99.90;;;;;;5121789;27;20055;-83
2023/04/25 04:39:33;;;;;;;6.53;1.83;;;4.90;99.90;;;;;;5123972;27;20051;-83
2023/04/25 04:42:01;;;;;;;6.57;1.75;;;4.90;99.90;;;;;;5129643;27;20039;-83
2023/04/25 04:44:28;;;;;;;5.28;1.52;;;5.00;99.90;;;;;;5127852;27;20074;-83
2023/04/25 04:46:54;;;;;;;6.80;2.20;;;5.00;99.90;;;;;;5109379;27;20054;-83
2023/04/25 04:49:21;;;;;;;4.25;1.98;;;5.00;99.90;;;;;;5110799;27;20050;-82
2023/04/25 04:51:47;;;;;;;5.20;1.83;;;5.10;99.90;;;;;;5110150;27;20098;-84
2023/04/25 04:54:13;;;;;;;2.78;1.20;;;5.10;99.90;;;;;;5105497;28;20069;-84
2023/04/25 04:56:38;;;;;;;3.70;1.92;;;5.10;99.90;;;;;;5103100;27;20442;-84
2023/04/25 04:59:07;;;;;;;7.15;1.80;;;5.10;99.90;;;;;;5103881;27;20054;-83
2023/04/25 05:01:34;;;;;;;4.90;2.00;;;5.10;99.90;;;;;;5109844;27;20192;-83
2023/04/25 05:04:00;;;;;;;4.32;2.10;;;5.10;99.90;;;;;;5129649;27;20114;-84
2023/04/25 05:06:28;;;;;;;4.65;1.80;;;5.10;99.90;;;;;;5110075;27;20126;-83
2023/04/25 05:08:54;;;;;;;5.20;1.80;;;5.10;99.90;;;;;;5108834;27;20049;-84
2023/04/25 05:11:20;;;;;;;7.95;2.38;;;5.10;99.90;;;;;;5110858;27;20039;-84
2023/04/25 05:13:46;;;;;;;7.30;2.22;;;5.10;99.90;;;;;;5108512;27;20425;-83
2023/04/25 05:16:13;;;;;;;6.75;2.70;;;5.10;99.90;;;;;;5108524;28;20054;-84
2023/04/25 05:18:39;;;;;;;6.45;2.25;;;5.00;99.90;;;;;;5091124;28;20040;-83
2023/04/25 05:21:05;;;;;;;10.15;2.42;;;5.10;99.90;;;;;;5091009;28;20043;-83
2023/04/25 05:23:32;;;;;;;5.75;1.90;;;5.20;99.90;;;;;;5123075;27;20386;-83
2023/04/25 05:25:57;;;;;;;4.90;2.03;;;5.20;99.90;;;;;;5108539;27;20039;-82
2023/04/25 05:28:23;;;;;;;6.55;2.35;;;5.30;99.90;;;;;;5127852;27;20165;-83
2023/04/25 05:30:49;;;;;;;7.43;2.20;;;5.40;99.90;;;;;;5092516;27;20405;-81
2023/04/25 05:33:15;;;;;;;5.63;2.00;;;5.50;99.90;;;;;;5127240;27;20027;-82
2023/04/25 05:35:41;;;;;;;6.25;2.20;;;5.90;99.90;;;;;;5091361;28;20039;-83
2023/04/25 05:38:07;;;;;;;8.32;2.28;;;6.10;99.90;;;;;;5080190;28;20100;-83
2023/04/25 05:40:32;;;;;;;5.35;1.88;;;6.30;99.90;;;;;;5086483;28;20063;-83
2023/04/25 05:42:58;;;;;;;7.15;2.70;;;6.30;99.90;;;;;;5102645;28;20039;-84
2023/04/25 05:45:24;;;;;;;8.20;2.63;;;6.50;99.90;;;;;;5104487;28;20048;-84
2023/04/25 05:47:52;;;;;;;7.40;2.38;;;6.60;99.90;;;;;;5107772;28;20035;-84
2023/04/25 05:50:18;;;;;;;5.18;1.83;;;6.90;99.90;;;;;;5108148;28;20462;-84
2023/04/25 05:52:43;;;;;;;6.53;1.90;;;7.20;99.90;;;;;;5108535;28;20035;-83
2023/04/25 05:55:09;;;;;;;9.02;2.17;;;7.20;99.90;;;;;;5105793;28;20039;-84
2023/04/25 05:57:35;;;;;;;6.60;1.75;;;7.00;99.90;;;;;;5104734;28;20062;-84
2023/04/25 06:00:01;;;;;;;9.73;1.98;;;6.90;99.90;;;;;;5088972;28;20413;-84
2023/04/25 06:02:27;;;;;;;12.07;2.40;;;6.90;99.90;;;;;;5107631;28;20044;-83
2023/04/25 06:04:53;;;;;;;7.22;2.53;;;6.80;99.90;;;;;;5104478;28;20096;-84
2023/04/25 06:07:19;;;;;;;6.75;1.92;;;6.80;99.90;;;;;;5106629;28;20044;-84
2023/04/25 06:09:45;;;;;;;7.43;2.20;;;7.30;99.90;;;;;;5106975;28;20412;-84
2023/04/25 06:12:13;;;;;;;12.25;2.45;;;6.70;99.90;;;;;;5106829;28;20039;-83
2023/04/25 06:14:39;;;;;;;6.97;1.77;;;6.60;99.90;;;;;;5100196;28;20039;-83
2023/04/25 06:17:08;;;;;;;7.43;1.80;;;6.60;99.90;;;;;;5105354;28;20040;-83
2023/04/25 06:19:37;;;;;;;7.03;1.70;;;6.90;99.90;;;;;;5106939;28;20066;-83
2023/04/25 06:22:02;;;;;;;10.10;2.08;;;6.70;99.90;;;;;;5105569;28;20556;-83
2023/04/25 06:24:28;;;;;;;8.25;1.90;;;6.70;99.90;;;;;;5105350;28;20173;-83
2023/04/25 06:26:54;;;;;;;7.65;1.70;;;6.80;99.90;;;;;;5106902;28;20040;-83
2023/04/25 06:29:22;;;;;;;7.57;3.58;;;6.80;99.90;;;;;;5107717;28;20042;-83
2023/04/25 06:31:48;;;;;;;8.88;2.00;;;6.80;99.90;;;;;;5088938;28;20036;-83
2023/04/25 06:34:14;;;;;;;12.10;2.47;;;6.90;99.90;;;;;;5106166;28;20062;-83
2023/04/25 06:36:41;;;;;;;6.43;2.05;;;6.90;99.90;;;;;;5106895;28;20150;-84
2023/04/25 06:39:06;;;;;;;7.70;1.70;;;7.30;99.90;;;;;;5104169;28;20459;-84
2023/04/25 06:41:32;;;;;;;5.93;2.40;;;6.70;99.90;;;;;;5106349;28;20054;-84
2023/04/25 06:43:58;;;;;;;6.30;1.52;;;6.70;99.90;;;;;;5074894;28;20070;-83
2023/04/25 06:46:23;;;;;;;5.28;1.90;;;6.80;99.90;;;;;;5086627;28;20048;-83
2023/04/25 06:48:50;;;;;;;3.42;1.73;;;6.90;99.90;;;;;;5084495;28;20690;-84
2023/04/25 06:51:18;;;;;;;6.22;1.75;;;7.00;99.90;;;;;;5099032;28;20117;-83
2023/04/25 06:53:43;;;;;;;6.00;1.60;;;7.60;99.90;;;;;;5100303;28;20060;-83
2023/04/25 06:56:09;;;;;;;5.10;1.27;;;7.40;99.90;;;;;;5086620;28;20905;-83
2023/04/25 06:58:35;;;;;;;7.40;2.00;;;7.60;99.90;;;;;;5069260;28;20400;-83
2023/04/25 07:01:01;;;;;;;7.78;2.00;;;7.80;99.90;;;;;;5085794;28;20102;-83
2023/04/25 07:03:27;;;;;;;10.75;2.17;;;7.90;99.90;;;;;;5086205;28;20036;-83
2023/04/25 07:05:52;;;;;;;4.40;1.83;;;7.70;99.90;;;;;;5086304;28;20036;-83
2023/04/25 07:08:18;;;;;;;9.95;1.77;;;7.60;99.90;;;;;;5090460;28;20039;-83
2023/04/25 07:10:45;;;;;;;3.53;1.40;;;7.60;99.90;;;;;;5110001;28;20131;-84
2023/04/25 07:13:11;;;;;;;8.68;1.80;;;7.60;99.90;;;;;;5109593;28;20565;-83
2023/04/25 07:15:37;;;;;;;5.38;1.33;;;7.70;99.90;;;;;;5092585;28;20042;-83
2023/04/25 07:18:03;;;;;;;7.90;1.77;;;8.20;99.90;;;;;;5096469;28;20489;-84
2023/04/25 07:20:30;;;;;;;5.90;1.40;;;8.00;99.90;;;;;;5083367;28;20138;-84
2023/04/25 07:22:56;;;;;;;5.97;1.52;;;8.10;99.90;;;;;;5092054;28;20055;-83
2023/04/25 07:25:22;;;;;;;5.47;1.45;;;8.20;99.90;;;;;;5107811;28;20489;-84
2023/04/25 07:27:48;;;;;;;8.13;1.95;;;8.10;99.90;;;;;;5108180;28;20044;-84
2023/04/25 07:30:14;;;;;;;5.82;1.50;;;8.10;99.90;;;;;;5110785;28;20039;-83
2023/04/25 07:32:40;;;;;;;6.32;1.48;;;8.20;99.90;;;;;;5110712;28;20035;-83
2023/04/25 07:35:07;;;;;;;6.32;1.60;;;8.60;99.90;;;;;;5109393;28;20043;-83
2023/04/25 07:37:33;;;;;;;6.97;1.80;;;8.10;99.90;;;;;;5114535;27;20039;-83
2023/04/25 07:39:59;;;;;;;6.25;1.30;;;8.10;99.90;;;;;;5110667;27;20051;-83
2023/04/25 07:42:25;;;;;;;8.48;1.90;;;8.00;99.90;;;;;;5114570;27;20108;-84
2023/04/25 07:44:51;;;;;;;5.75;1.33;;;8.00;99.90;;;;;;5090472;28;20393;-84
2023/04/25 07:47:18;;;;;;;3.80;1.40;;;8.00;99.90;;;;;;5091593;28;20051;-83
2023/04/25 07:49:45;;;;;;;5.03;1.40;;;8.10;99.90;;;;;;5091456;28;20051;-83
2023/04/25 07:52:14;;;;;;;4.75;1.15;;;8.20;99.90;;;;;;5075228;28;20047;-83
2023/04/25 07:54:41;;;;;;;4.18;1.00;;;8.40;99.90;;;;;;5091956;28;20116;-84
2023/04/25 07:57:10;;;;;;;8.20;1.60;;;8.50;99.90;;;;;;5091917;27;20050;-83
2023/04/25 07:59:36;;;;;;;5.82;1.42;;;8.60;99.90;;;;;;5129963;27;20035;-82
2023/04/25 08:02:02;;;;;;;5.20;1.33;;;8.80;99.90;;;;;;5111887;27;20527;-82
2023/04/25 08:04:28;;;;;;;4.47;1.58;;;9.00;99.90;;;;;;5112943;27;20047;-83
2023/04/25 08:06:54;;;;;;;5.10;0.93;;;9.00;99.90;;;;;;5131245;27;20062;-83
2023/04/25 08:09:20;;;;;;;2.00;0.60;;;8.90;99.90;;;;;;5130348;27;20047;-83
2023/04/25 08:11:46;;;;;;;1.95;1.00;;;8.80;99.90;;;;;;5111102;27;20051;-83
2023/04/25 08:14:13;;;;;;;3.92;1.05;;;8.50;99.90;;;;;;5093418;27;20497;-83
2023/04/25 08:16:39;;;;;;;3.05;1.13;;;8.30;99.90;;;;;;5111364;27;20043;-82
2023/04/25 08:19:05;;;;;;;2.83;1.17;;;8.10;99.90;;;;;;5128615;27;20077;-82
2023/04/25 08:21:32;;;;;;;2.17;1.08;;;7.90;99.90;;;;;;5112030;27;20055;-82
2023/04/25 08:23:58;;;;;;;2.88;0.90;;;7.70;99.90;;;;;;5129556;27;20039;-82
2023/04/25 08:26:24;;;;;;;1.30;0.65;;;8.20;99.90;;;;;;5095205;27;20050;-83
2023/04/25 08:28:50;;;;;;;5.60;1.40;;;7.50;99.90;;;;;;5097452;28;20051;-82
2023/04/25 08:31:16;;;;;;;6.70;1.65;;;7.50;99.90;;;;;;5090885;28;20048;-82
2023/04/25 08:33:42;;;;;;;3.75;1.30;;;7.70;99.90;;;;;;5091833;28;20494;-82
2023/04/25 08:36:10;;;;;;;4.55;1.35;;;7.80;99.90;;;;;;5091348;28;20051;-83
2023/04/25 08:38:36;;;;;;;7.10;1.50;;;8.00;99.90;;;;;;5090835;28;20097;-82
2023/04/25 08:41:02;;;;;;;3.00;1.13;;;8.10;99.90;;;;;;5109742;28;20075;-82
2023/04/25 08:43:29;;;;;;;3.00;0.90;;;8.20;99.90;;;;;;5103045;27;20085;-82
2023/04/25 08:46:00;;;;;;;5.28;1.50;;;8.30;99.90;;;;;;5113049;27;20036;-82
2023/04/25 08:48:28;;;;;;;6.38;1.58;;;8.40;99.90;;;;;;5109179;28;20512;-85
2023/04/25 08:50:55;;;;;;;2.95;1.20;;;8.60;99.90;;;;;;5090653;28;20764;-85
2023/04/25 08:53:31;;;;;;;6.80;1.40;;;8.80;99.90;;;;;;5091040;28;20036;-84
2023/04/25 08:55:59;;;;;;;5.30;1.02;;;8.90;99.90;;;;;;5102928;27;20089;-84
2023/04/25 08:58:25;;;;;;;5.95;1.40;;;8.90;99.90;;;;;;5109879;27;20039;-85
2023/04/25 09:00:51;;;;;;;8.73;1.40;;;8.90;99.90;;;;;;5094907;27;20039;-85
2023/04/25 09:03:17;;;;;;;4.18;1.80;;;9.40;99.90;;;;;;5090380;27;20045;-84
2023/04/25 09:05:43;;;;;;;4.53;1.00;;;9.40;99.90;;;;;;5087249;27;20353;-87
2023/04/25 09:08:09;;;;;;;3.67;0.73;;;9.40;99.90;;;;;;5088330;27;20043;-87
2023/04/25 09:10:36;;;;;;;8.00;1.02;;;9.40;99.90;;;;;;5110482;27;20690;-85
2023/04/25 09:13:05;;;;;;;5.88;1.10;;;9.60;99.90;;;;;;5094545;27;20127;-87
2023/04/25 09:15:32;;;;;;;8.20;1.25;;;9.70;99.90;;;;;;5110122;27;20043;-87
2023/04/25 09:17:59;;;;;;;3.95;1.15;;;10.00;99.90;;;;;;5110256;27;20039;-87
2023/04/25 09:20:25;;;;;;;3.70;1.13;;;9.80;99.90;;;;;;5109705;27;20380;-87
2023/04/25 09:23:05;;;;;;;3.53;1.27;;;9.10;99.90;;;;;;5109499;27;20130;-88
2023/04/25 09:25:38;;;;;;;3.53;1.23;;;8.00;99.90;;;;;;5109963;27;20086;-86
2023/04/25 09:28:07;;;;;;;2.92;0.90;;;6.90;99.90;;;;;;5109125;27;20078;-86
2023/04/25 09:30:35;;;;;;;3.85;1.08;;;6.30;99.90;;;;;;5091532;27;20092;-87
2023/04/25 09:33:07;;;;;;;5.53;0.95;;;6.20;99.90;;;;;;5109955;27;20077;-86
2023/04/25 09:35:55;;;;;;;4.78;1.02;;;6.00;99.90;;;;;;5110232;27;20058;-86
2023/04/25 09:38:21;;;;;;;3.58;1.00;;;6.30;99.90;;;;;;5106744;27;20521;-86
2023/04/25 09:40:50;;;;;;;1.98;1.40;;;6.60;99.90;;;;;;5107739;27;20362;-87
2023/04/25 09:43:22;;;;;;;4.28;1.33;;;7.10;99.90;;;;;;5093849;28;20425;-87
2023/04/25 09:45:51;;;;;;;1.75;1.10;;;7.20;99.90;;;;;;5074199;28;20546;-87
2023/04/25 09:48:19;;;;;;;4.57;1.02;;;7.20;99.90;;;;;;5104686;27;20054;-87
2023/04/25 09:51:07;;;;;;;2.33;1.40;;;7.40;99.90;;;;;;5109535;27;20381;-87
2023/04/25 09:53:37;;;;;;;5.28;1.17;;;7.40;99.90;;;;;;5109543;27;20046;-87
2023/04/25 09:56:08;;;;;;;5.07;1.20;;;7.50;99.90;;;;;;5108462;27;20047;-87
2023/04/25 09:58:36;;;;;;;5.70;1.33;;;7.70;99.90;;;;;;5109819;27;20051;-87
2023/04/25 10:01:07;;;;;;;8.07;1.63;;;8.00;99.90;;;;;;5110715;27;20508;-88
2023/04/25 10:03:35;;;;;;;3.40;1.33;;;8.20;99.90;;;;;;5093851;27;20039;-88
2023/04/25 10:06:04;;;;;;;5.55;1.20;;;8.50;99.90;;;;;;5094419;27;20042;-89
2023/04/25 10:08:37;;;;;;;6.45;1.33;;;8.50;99.90;;;;;;5092595;27;20038;-89
2023/04/25 10:11:14;;;;;;;2.45;0.90;;;8.40;99.90;;;;;;5090885;28;20562;-86
2023/04/25 10:13:41;;;;;;;2.58;0.82;;;7.90;99.90;;;;;;5092138;28;20095;-88
2023/04/25 10:16:07;;;;;;;1.42;1.08;;;7.60;99.90;;;;;;5109600;28;20055;-87
2023/04/25 10:18:33;;;;;;;5.13;1.60;;;7.40;99.90;;;;;;5109673;28;20062;-86
2023/04/25 10:21:02;;;;;;;1.40;1.30;;;7.30;99.90;;;;;;5110271;28;20474;-89
2023/04/25 10:23:30;;;;;;;3.63;1.30;;;7.40;99.90;;;;;;5128123;28;20485;-87
2023/04/25 10:25:56;;;;;;;2.88;1.17;;;7.40;99.90;;;;;;5109905;28;20051;-88
2023/04/25 10:28:22;;;;;;;4.18;1.15;;;7.60;99.90;;;;;;5110148;28;20043;-86
2023/04/25 10:31:02;;;;;;;4.10;1.25;;;7.80;99.90;;;;;;5082564;28;20052;-87
2023/04/25 10:33:46;;;;;;;4.15;1.30;;;7.90;99.90;;;;;;5013874;28;20037;-88
2023/04/25 10:36:22;;;;;;;4.47;1.30;;;8.20;99.90;;;;;;5014690;28;20146;-89
2023/04/25 10:39:00;;;;;;;3.72;1.42;;;8.40;99.90;;;;;;5016575;28;20052;-90
2023/04/25 10:41:57;;;;;;;4.20;1.35;;;8.80;99.90;;;;;;4995627;28;20064;-87
2023/04/25 10:44:27;;;;;;;2.95;1.40;;;8.80;99.90;;;;;;5014431;28;20057;-88
2023/04/25 10:46:55;;;;;;;4.75;1.60;;;9.00;99.90;;;;;;4996943;28;20049;-87
2023/04/25 10:49:32;;;;;;;4.13;1.35;;;9.20;99.90;;;;;;5013691;28;20045;-87
2023/04/25 10:52:14;;;;;;;4.70;1.30;;;9.40;99.90;;;;;;5023992;28;20069;-88
2023/04/25 10:54:47;;;;;;;3.88;1.45;;;9.40;99.90;;;;;;5015729;28;20098;-88
2023/04/25 10:57:47;;;;;;;5.18;1.30;;;9.40;99.90;;;;;;5033997;28;20487;-87
2023/04/25 11:00:18;;;;;;;5.78;1.45;;;9.30;99.90;;;;;;5016729;28;20361;-89
2023/04/25 11:02:51;;;;;;;4.93;1.33;;;9.20;99.90;;;;;;5033370;28;20045;-89
2023/04/25 11:05:40;;;;;;;6.32;1.55;;;9.10;99.90;;;;;;5017492;28;20049;-87
2023/04/25 11:08:11;;;;;;;9.00;1.60;;;9.10;99.90;;;;;;5032185;28;20049;-88
2023/04/25 11:10:39;;;;;;;3.42;1.27;;;9.60;99.90;;;;;;5015385;28;20044;-89
2023/04/25 11:13:05;;;;;;;6.68;1.45;;;9.30;99.90;;;;;;5017371;28;20045;-87
2023/04/25 11:15:31;;;;;;;4.55;1.52;;;9.80;99.90;;;;;;5017869;28;20055;-89
2023/04/25 11:17:57;;;;;;;5.47;1.83;;;9.80;99.90;;;;;;5017508;28;20056;-89
2023/04/25 11:20:26;;;;;;;5.05;1.50;;;9.60;99.90;;;;;;5032659;28;20040;-90
2023/04/25 11:22:51;;;;;;;4.43;1.17;;;9.40;99.90;;;;;;5008387;28;20131;-90
2023/04/25 11:25:17;;;;;;;5.07;1.60;;;9.20;99.90;;;;;;5012840;28;20164;-87
2023/04/25 11:27:57;;;;;;;5.55;1.55;;;9.20;99.90;;;;;;5013643;28;20153;-88
2023/04/25 11:30:25;;;;;;;3.90;1.60;;;9.20;99.90;;;;;;5000044;28;20046;-88
2023/04/25 11:32:51;;;;;;;5.60;1.27;;;9.40;99.90;;;;;;5015127;28;20048;-88
2023/04/25 11:35:19;;;;;;;2.95;1.13;;;9.60;99.90;;;;;;5033557;28;20049;-88
2023/04/25 11:37:45;;;;;;;3.00;1.17;;;9.80;99.90;;;;;;5013431;28;20060;-89
2023/04/25 11:40:11;;;;;;;4.57;1.35;;;9.70;99.90;;;;;;5013822;28;20434;-89
2023/04/25 11:42:39;;;;;;;4.75;0.90;;;9.80;99.90;;;;;;5013672;28;20059;-88
2023/04/25 11:45:06;;;;;;;5.38;1.10;;;10.00;99.90;;;;;;5005416;28;20093;-88
2023/04/25 11:47:33;;;;;;;6.40;1.20;;;9.90;99.90;;;;;;4992089;28;20061;-87
2023/04/25 11:50:06;;;;;;;4.32;1.30;;;9.90;99.90;;;;;;5029206;28;20052;-89
2023/04/25 11:52:50;;;;;;;3.60;1.30;;;9.90;99.90;;;;;;5012936;28;20464;-88
2023/04/25 11:55:17;;;;;;;3.45;1.48;;;9.80;99.90;;;;;;5010875;28;20056;-88
2023/04/25 11:57:45;;;;;;;3.95;1.30;;;9.40;99.90;;;;;;5013161;28;20522;-88
2023/04/25 12:00:15;;;;;;;4.63;1.10;;;9.30;99.90;;;;;;5013254;28;20052;-87
2023/04/25 12:02:42;;;;;;;4.95;2.13;;;8.80;99.90;;;;;;5029573;28;20041;-88
2023/04/25 12:05:09;;;;;;;3.97;1.45;;;9.30;99.90;;;;;;5011383;28;20488;-88
2023/04/25 12:07:38;;;;;;;4.07;1.00;;;9.50;99.90;;;;;;5013061;28;20164;-88
2023/04/25 12:10:07;;;;;;;5.63;1.25;;;9.60;99.90;;;;;;5011292;28;20091;-87
2023/04/25 12:12:34;;;;;;;4.28;1.33;;;9.80;99.90;;;;;;5027497;28;20057;-87
2023/04/25 12:15:19;;;;;;;7.68;2.30;;;9.90;99.90;;;;;;5027878;28;20045;-89
2023/04/25 12:17:49;;;;;;;5.93;1.65;;;9.80;99.90;;;;;;5030384;28;20550;-88
2023/04/25 12:20:20;;;;;;;6.20;1.42;;;9.90;99.90;;;;;;5012044;28;20534;-87
2023/04/25 12:22:48;;;;;;;3.28;1.10;;;9.50;99.90;;;;;;5013131;28;20067;-87
2023/04/25 12:25:40;;;;;;;7.97;1.73;;;9.60;99.90;;;;;;5011819;28;20085;-88
2023/04/25 12:28:21;;;;;;;3.47;1.13;;;9.60;99.90;;;;;;5012335;28;20049;-87
2023/04/25 12:31:04;;;;;;;3.35;1.60;;;9.40;99.90;;;;;;5028169;28;20124;-86
2023/04/25 12:33:35;;;;;;;3.95;1.48;;;9.30;99.90;;;;;;5011762;28;20061;-85
2023/04/25 12:36:09;;;;;;;4.10;1.20;;;9.50;99.90;;;;;;5026668;28;20053;-86
2023/04/25 12:38:40;;;;;;;5.03;1.40;;;9.20;99.90;;;;;;5005268;28;20573;-87
2023/04/25 12:41:06;;;;;;;4.22;1.60;;;9.40;99.90;;;;;;4991439;28;20061;-88
2023/04/25 12:43:32;;;;;;;7.40;1.50;;;9.70;99.90;;;;;;5008001;28;20522;-88
2023/04/25 12:45:57;;;;;;;3.60;1.13;;;9.90;99.90;;;;;;4992397;28;20041;-88
2023/04/25 12:48:24;;;;;;;5.55;1.45;;;9.60;99.90;;;;;;4991062;28;20472;-86
2023/04/25 12:50:51;;;;;;;5.35;1.90;;;9.40;99.90;;;;;;4989155;28;20049;-86
2023/04/25 12:53:18;;;;;;;4.47;1.58;;;8.70;99.90;;;;;;5008793;28;20569;-87
2023/04/25 12:55:47;;;;;;;9.23;2.60;;;8.40;99.90;;;;;;5007735;28;20181;-87